sensor_id;sensor_type;location;lat;lon;timestamp;temperature;humidity
45765;DHT22;31474;45.332;10.230;2023-10-31T00:02:14;16.70;99.90
45765;DHT22;31474;45.332;10.230;2023-10-31T00:04:39;16.70;99.90
45765;DHT22;31474;45.332;10.230;2023-10-31T00:07:05;16.60;99.90
45765;DHT22;31474;45.332;10.230;2023-10-31T00:09:31;16.60;99.90
45765;DHT22;31474;45.332;10.230;2023-10-31T00:11:58;16.50;99.90
45765;DHT22;31474;45.332;10.230;2023-10-31T00:14:23;16.50;99.90
45765;DHT22;31474;45.332;10.230;2023-10-31T00:16:49;16.50;99.90
45765;DHT22;31474;45.332;10.230;2023-10-31T00:19:15;16.50;99.90
45765;DHT22;31474;45.332;10.230;2023-10-31T00:21:40;16.40;99.90
45765;DHT22;31474;45.332;10.230;2023-10-31T00:24:06;16.50;99.90
45765;DHT22;31474;45.332;10.230;2023-10-31T00:26:32;16.50;99.90
45765;DHT22;31474;45.332;10.230;2023-10-31T00:28:58;16.50;99.90
45765;DHT22;31474;45.332;10.230;2023-10-31T00:31:23;16.50;99.90
45765;DHT22;31474;45.332;10.230;2023-10-31T00:33:49;16.40;99.90
45765;DHT22;31474;45.332;10.230;2023-10-31T00:36:15;16.40;99.90
45765;DHT22;31474;45.332;10.230;2023-10-31T00:38:41;16.40;99.90
45765;DHT22;31474;45.332;10.230;2023-10-31T00:41:07;16.40;99.90
45765;DHT22;31474;45.332;10.230;2023-10-31T00:43:32;16.40;99.90
45765;DHT22;31474;45.332;10.230;2023-10-31T00:45:58;16.40;99.90
45765;DHT22;31474;45.332;10.230;2023-10-31T00:48:24;16.40;99.90
45765;DHT22;31474;45.332;10.230;2023-10-31T00:50:49;16.30;99.90
45765;DHT22;31474;45.332;10.230;2023-10-31T00:53:15;16.30;99.90
45765;DHT22;31474;45.332;10.230;2023-10-31T00:55:42;16.30;99.90
45765;DHT22;31474;45.332;10.230;2023-10-31T00:58:07;16.20;99.90
45765;DHT22;31474;45.332;10.230;2023-10-31T01:00:33;16.30;99.90
45765;DHT22;31474;45.332;10.230;2023-10-31T01:02:59;16.20;99.90
45765;DHT22;31474;45.332;10.230;2023-10-31T01:05:25;16.20;99.90
45765;DHT22;31474;45.332;10.230;2023-10-31T01:07:52;16.20;99.90
45765;DHT22;31474;45.332;10.230;2023-10-31T01:10:17;16.20;99.90
45765;DHT22;31474;45.332;10.230;2023-10-31T01:12:43;16.20;99.90
45765;DHT22;31474;45.332;10.230;2023-10-31T01:15:09;16.20;99.90
45765;DHT22;31474;45.332;10.230;2023-10-31T01:17:35;16.20;99.90
45765;DHT22;31474;45.332;10.230;2023-10-31T01:20:00;16.20;99.90
45765;DHT22;31474;45.332;10.230;2023-10-31T01:22:26;16.20;99.90
45765;DHT22;31474;45.332;10.230;2023-10-31T01:24:52;16.20;99.90
45765;DHT22;31474;45.332;10.230;2023-10-31T01:27:17;16.20;99.90
45765;DHT22;31474;45.332;10.230;2023-10-31T01:29:43;16.20;99.90
45765;DHT22;31474;45.332;10.230;2023-10-31T01:32:09;16.20;99.90
45765;DHT22;31474;45.332;10.230;2023-10-31T01:34:34;16.20;99.90
45765;DHT22;31474;45.332;10.230;2023-10-31T01:37:00;16.20;99.90
45765;DHT22;31474;45.332;10.230;2023-10-31T01:39:25;16.10;99.90
45765;DHT22;31474;45.332;10.230;2023-10-31T01:41:51;16.00;99.90
45765;DHT22;31474;45.332;10.230;2023-10-31T01:44:20;16.00;99.90
45765;DHT22;31474;45.332;10.230;2023-10-31T01:46:45;15.90;99.90
45765;DHT22;31474;45.332;10.230;2023-10-31T01:49:12;15.80;99.90
45765;DHT22;31474;45.332;10.230;2023-10-31T01:51:38;15.80;99.90
45765;DHT22;31474;45.332;10.230;2023-10-31T01:54:04;15.80;99.90
45765;DHT22;31474;45.332;10.230;2023-10-31T01:56:30;15.80;99.90
45765;DHT22;31474;45.332;10.230;2023-10-31T01:58:56;15.70;99.90
45765;DHT22;31474;45.332;10.230;2023-10-31T02:01:21;15.70;99.90
45765;DHT22;31474;45.332;10.230;2023-10-31T02:03:48;15.70;99.90
45765;DHT22;31474;45.332;10.230;2023-10-31T02:06:13;15.70;99.90
45765;DHT22;31474;45.332;10.230;2023-10-31T02:08:39;15.70;99.90
45765;DHT22;31474;45.332;10.230;2023-10-31T02:11:05;15.70;99.90
45765;DHT22;31474;45.332;10.230;2023-10-31T02:13:35;15.70;99.90
45765;DHT22;31474;45.332;10.230;2023-10-31T02:16:01;15.70;99.90
45765;DHT22;31474;45.332;10.230;2023-10-31T02:18:27;15.70;99.90
45765;DHT22;31474;45.332;10.230;2023-10-31T02:20:53;15.80;99.90
45765;DHT22;31474;45.332;10.230;2023-10-31T02:23:18;15.80;99.90
45765;DHT22;31474;45.332;10.230;2023-10-31T02:25:44;15.70;99.90
45765;DHT22;31474;45.332;10.230;2023-10-31T02:28:10;15.80;99.90
45765;DHT22;31474;45.332;10.230;2023-10-31T02:30:35;15.80;99.90
45765;DHT22;31474;45.332;10.230;2023-10-31T02:33:02;15.80;99.90
45765;DHT22;31474;45.332;10.230;2023-10-31T02:35:28;15.80;99.90
45765;DHT22;31474;45.332;10.230;2023-10-31T02:37:53;15.80;99.90
45765;DHT22;31474;45.332;10.230;2023-10-31T02:40:19;15.70;99.90
45765;DHT22;31474;45.332;10.230;2023-10-31T02:42:45;15.70;99.90
45765;DHT22;31474;45.332;10.230;2023-10-31T02:45:11;15.70;99.90
45765;DHT22;31474;45.332;10.230;2023-10-31T02:47:36;15.80;99.90
45765;DHT22;31474;45.332;10.230;2023-10-31T02:50:02;15.80;99.90
45765;DHT22;31474;45.332;10.230;2023-10-31T02:52:28;15.80;99.90
45765;DHT22;31474;45.332;10.230;2023-10-31T02:54:53;15.80;99.90
45765;DHT22;31474;45.332;10.230;2023-10-31T02:57:19;15.90;99.90
45765;DHT22;31474;45.332;10.230;2023-10-31T02:59:45;15.80;99.90
45765;DHT22;31474;45.332;10.230;2023-10-31T03:02:11;15.80;99.90
45765;DHT22;31474;45.332;10.230;2023-10-31T03:04:37;15.90;99.90
45765;DHT22;31474;45.332;10.230;2023-10-31T03:07:03;15.90;99.90
45765;DHT22;31474;45.332;10.230;2023-10-31T03:09:28;15.90;99.90
45765;DHT22;31474;45.332;10.230;2023-10-31T03:11:54;15.90;99.90
45765;DHT22;31474;45.332;10.230;2023-10-31T03:14:20;15.90;99.90
45765;DHT22;31474;45.332;10.230;2023-10-31T03:16:46;15.90;99.90
45765;DHT22;31474;45.332;10.230;2023-10-31T03:19:12;15.80;99.90
45765;DHT22;31474;45.332;10.230;2023-10-31T03:21:37;15.80;99.90
45765;DHT22;31474;45.332;10.230;2023-10-31T03:24:03;15.80;99.90
45765;DHT22;31474;45.332;10.230;2023-10-31T03:26:29;15.80;99.90
45765;DHT22;31474;45.332;10.230;2023-10-31T03:28:55;15.80;99.90
45765;DHT22;31474;45.332;10.230;2023-10-31T03:31:23;15.80;99.90
45765;DHT22;31474;45.332;10.230;2023-10-31T03:33:49;15.80;99.90
45765;DHT22;31474;45.332;10.230;2023-10-31T03:36:14;15.90;99.90
45765;DHT22;31474;45.332;10.230;2023-10-31T03:38:40;15.90;99.90
45765;DHT22;31474;45.332;10.230;2023-10-31T03:41:06;15.80;99.90
45765;DHT22;31474;45.332;10.230;2023-10-31T03:43:32;15.90;99.90
45765;DHT22;31474;45.332;10.230;2023-10-31T03:45:57;15.90;99.90
45765;DHT22;31474;45.332;10.230;2023-10-31T03:48:23;15.80;99.90
45765;DHT22;31474;45.332;10.230;2023-10-31T03:50:50;15.80;99.90
45765;DHT22;31474;45.332;10.230;2023-10-31T03:53:16;15.80;99.90
45765;DHT22;31474;45.332;10.230;2023-10-31T03:55:41;15.80;99.90
45765;DHT22;31474;45.332;10.230;2023-10-31T03:58:07;15.80;99.90
45765;DHT22;31474;45.332;10.230;2023-10-31T04:00:33;15.80;99.90
45765;DHT22;31474;45.332;10.230;2023-10-31T04:02:58;15.80;99.90
45765;DHT22;31474;45.332;10.230;2023-10-31T04:05:24;15.80;99.90
45765;DHT22;31474;45.332;10.230;2023-10-31T04:07:50;15.80;99.90
45765;DHT22;31474;45.332;10.230;2023-10-31T04:10:17;15.80;99.90
45765;DHT22;31474;45.332;10.230;2023-10-31T04:12:43;15.90;99.90
45765;DHT22;31474;45.332;10.230;2023-10-31T04:15:09;15.80;99.90
45765;DHT22;31474;45.332;10.230;2023-10-31T04:17:35;15.80;99.90
45765;DHT22;31474;45.332;10.230;2023-10-31T04:20:01;15.80;99.90
45765;DHT22;31474;45.332;10.230;2023-10-31T04:22:27;15.70;99.90
45765;DHT22;31474;45.332;10.230;2023-10-31T04:24:53;15.70;99.90
45765;DHT22;31474;45.332;10.230;2023-10-31T04:27:18;15.70;99.90
45765;DHT22;31474;45.332;10.230;2023-10-31T04:29:44;15.80;99.90
45765;DHT22;31474;45.332;10.230;2023-10-31T04:32:10;15.80;99.90
45765;DHT22;31474;45.332;10.230;2023-10-31T04:34:36;15.80;99.90
45765;DHT22;31474;45.332;10.230;2023-10-31T04:37:02;15.90;99.90
45765;DHT22;31474;45.332;10.230;2023-10-31T04:39:27;15.90;99.90
45765;DHT22;31474;45.332;10.230;2023-10-31T04:41:53;15.90;99.90
45765;DHT22;31474;45.332;10.230;2023-10-31T04:44:19;16.00;99.90
45765;DHT22;31474;45.332;10.230;2023-10-31T04:46:44;16.00;99.90
45765;DHT22;31474;45.332;10.230;2023-10-31T04:49:10;16.00;99.90
45765;DHT22;31474;45.332;10.230;2023-10-31T04:51:36;16.00;99.90
45765;DHT22;31474;45.332;10.230;2023-10-31T04:54:03;16.00;99.90
45765;DHT22;31474;45.332;10.230;2023-10-31T04:56:29;16.00;99.90
45765;DHT22;31474;45.332;10.230;2023-10-31T04:58:55;16.00;99.90
45765;DHT22;31474;45.332;10.230;2023-10-31T05:01:21;16.00;99.90
45765;DHT22;31474;45.332;10.230;2023-10-31T05:03:46;16.00;99.90
45765;DHT22;31474;45.332;10.230;2023-10-31T05:06:12;16.00;99.90
45765;DHT22;31474;45.332;10.230;2023-10-31T05:08:38;16.00;99.90
45765;DHT22;31474;45.332;10.230;2023-10-31T05:11:04;16.00;99.90
45765;DHT22;31474;45.332;10.230;2023-10-31T05:13:29;16.00;99.90
45765;DHT22;31474;45.332;10.230;2023-10-31T05:15:55;16.00;99.90
45765;DHT22;31474;45.332;10.230;2023-10-31T05:18:21;16.00;99.90
45765;DHT22;31474;45.332;10.230;2023-10-31T05:20:47;16.00;99.90
45765;DHT22;31474;45.332;10.230;2023-10-31T05:23:13;15.90;99.90
45765;DHT22;31474;45.332;10.230;2023-10-31T05:25:38;16.00;99.90
45765;DHT22;31474;45.332;10.230;2023-10-31T05:28:04;16.00;99.90
45765;DHT22;31474;45.332;10.230;2023-10-31T05:30:30;15.90;99.90
45765;DHT22;31474;45.332;10.230;2023-10-31T05:32:56;15.90;99.90
45765;DHT22;31474;45.332;10.230;2023-10-31T05:35:22;15.90;99.90
45765;DHT22;31474;45.332;10.230;2023-10-31T05:37:47;15.90;99.90
45765;DHT22;31474;45.332;10.230;2023-10-31T05:40:14;15.90;99.90
45765;DHT22;31474;45.332;10.230;2023-10-31T05:42:40;15.90;99.90
45765;DHT22;31474;45.332;10.230;2023-10-31T05:45:06;15.90;99.90
45765;DHT22;31474;45.332;10.230;2023-10-31T05:47:32;15.90;99.90
45765;DHT22;31474;45.332;10.230;2023-10-31T05:50:00;15.90;99.90
45765;DHT22;31474;45.332;10.230;2023-10-31T05:52:29;15.90;99.90
45765;DHT22;31474;45.332;10.230;2023-10-31T05:54:55;15.90;99.90
45765;DHT22;31474;45.332;10.230;2023-10-31T05:57:21;15.90;99.90
45765;DHT22;31474;45.332;10.230;2023-10-31T05:59:47;15.90;99.90
45765;DHT22;31474;45.332;10.230;2023-10-31T06:02:14;15.90;99.90
45765;DHT22;31474;45.332;10.230;2023-10-31T06:04:39;15.90;99.90
45765;DHT22;31474;45.332;10.230;2023-10-31T06:07:06;15.80;99.90
45765;DHT22;31474;45.332;10.230;2023-10-31T06:09:31;15.80;99.90
45765;DHT22;31474;45.332;10.230;2023-10-31T06:11:59;15.70;99.90
45765;DHT22;31474;45.332;10.230;2023-10-31T06:14:25;15.70;99.90
45765;DHT22;31474;45.332;10.230;2023-10-31T06:16:51;15.60;99.90
45765;DHT22;31474;45.332;10.230;2023-10-31T06:19:17;15.60;99.90
45765;DHT22;31474;45.332;10.230;2023-10-31T06:21:43;15.60;99.90
45765;DHT22;31474;45.332;10.230;2023-10-31T06:24:09;15.50;99.90
45765;DHT22;31474;45.332;10.230;2023-10-31T06:26:34;15.40;99.90
45765;DHT22;31474;45.332;10.230;2023-10-31T06:29:00;15.30;99.90
45765;DHT22;31474;45.332;10.230;2023-10-31T06:31:26;15.30;99.90
45765;DHT22;31474;45.332;10.230;2023-10-31T06:33:51;15.30;99.90
45765;DHT22;31474;45.332;10.230;2023-10-31T06:36:17;15.20;99.90
45765;DHT22;31474;45.332;10.230;2023-10-31T06:38:43;15.20;99.90
45765;DHT22;31474;45.332;10.230;2023-10-31T06:41:08;15.10;99.90
45765;DHT22;31474;45.332;10.230;2023-10-31T06:43:34;15.00;99.90
45765;DHT22;31474;45.332;10.230;2023-10-31T06:46:00;14.90;99.90
45765;DHT22;31474;45.332;10.230;2023-10-31T06:48:27;14.80;99.90
45765;DHT22;31474;45.332;10.230;2023-10-31T06:50:53;14.80;99.90
45765;DHT22;31474;45.332;10.230;2023-10-31T06:53:19;14.80;99.90
45765;DHT22;31474;45.332;10.230;2023-10-31T06:55:45;14.70;99.90
45765;DHT22;31474;45.332;10.230;2023-10-31T06:58:10;14.70;99.90
45765;DHT22;31474;45.332;10.230;2023-10-31T07:00:36;14.60;99.90
45765;DHT22;31474;45.332;10.230;2023-10-31T07:03:03;14.50;99.90
45765;DHT22;31474;45.332;10.230;2023-10-31T07:05:37;14.50;99.90
45765;DHT22;31474;45.332;10.230;2023-10-31T07:08:03;14.50;99.90
45765;DHT22;31474;45.332;10.230;2023-10-31T07:10:29;14.50;99.90
45765;DHT22;31474;45.332;10.230;2023-10-31T07:12:55;14.60;99.90
45765;DHT22;31474;45.332;10.230;2023-10-31T07:15:21;14.60;99.90
45765;DHT22;31474;45.332;10.230;2023-10-31T07:17:47;14.60;99.90
45765;DHT22;31474;45.332;10.230;2023-10-31T07:20:13;14.70;99.90
45765;DHT22;31474;45.332;10.230;2023-10-31T07:22:38;14.60;99.90
45765;DHT22;31474;45.332;10.230;2023-10-31T07:25:06;14.60;99.90
45765;DHT22;31474;45.332;10.230;2023-10-31T07:27:32;14.60;99.90
45765;DHT22;31474;45.332;10.230;2023-10-31T07:29:57;14.50;99.90
45765;DHT22;31474;45.332;10.230;2023-10-31T07:32:24;14.60;99.90
45765;DHT22;31474;45.332;10.230;2023-10-31T07:34:50;14.60;99.90
45765;DHT22;31474;45.332;10.230;2023-10-31T07:37:15;14.60;99.90
45765;DHT22;31474;45.332;10.230;2023-10-31T07:39:41;14.60;99.90
45765;DHT22;31474;45.332;10.230;2023-10-31T07:42:07;14.60;99.90
45765;DHT22;31474;45.332;10.230;2023-10-31T07:44:33;14.70;99.90
45765;DHT22;31474;45.332;10.230;2023-10-31T07:46:59;14.80;99.90
45765;DHT22;31474;45.332;10.230;2023-10-31T07:49:25;14.80;99.90
45765;DHT22;31474;45.332;10.230;2023-10-31T07:51:50;14.80;99.90
45765;DHT22;31474;45.332;10.230;2023-10-31T07:54:16;14.80;99.90
45765;DHT22;31474;45.332;10.230;2023-10-31T07:56:42;14.70;99.90
45765;DHT22;31474;45.332;10.230;2023-10-31T07:59:08;14.70;99.90
45765;DHT22;31474;45.332;10.230;2023-10-31T08:01:35;14.60;99.90
45765;DHT22;31474;45.332;10.230;2023-10-31T08:04:01;14.60;99.90
45765;DHT22;31474;45.332;10.230;2023-10-31T08:06:27;14.60;99.90
45765;DHT22;31474;45.332;10.230;2023-10-31T08:08:52;14.60;99.90
45765;DHT22;31474;45.332;10.230;2023-10-31T08:11:18;14.70;99.90
45765;DHT22;31474;45.332;10.230;2023-10-31T08:13:44;14.70;99.90
45765;DHT22;31474;45.332;10.230;2023-10-31T08:16:10;14.70;99.90
45765;DHT22;31474;45.332;10.230;2023-10-31T08:18:36;14.80;99.90
45765;DHT22;31474;45.332;10.230;2023-10-31T08:21:04;14.90;99.90
45765;DHT22;31474;45.332;10.230;2023-10-31T08:23:30;14.90;99.90
45765;DHT22;31474;45.332;10.230;2023-10-31T08:25:56;15.00;99.90
45765;DHT22;31474;45.332;10.230;2023-10-31T08:28:22;14.90;99.90
45765;DHT22;31474;45.332;10.230;2023-10-31T08:30:47;15.00;99.90
45765;DHT22;31474;45.332;10.230;2023-10-31T08:33:13;15.00;99.90
45765;DHT22;31474;45.332;10.230;2023-10-31T08:35:39;14.90;99.90
45765;DHT22;31474;45.332;10.230;2023-10-31T08:38:05;14.90;99.90
45765;DHT22;31474;45.332;10.230;2023-10-31T08:40:31;14.90;99.90
45765;DHT22;31474;45.332;10.230;2023-10-31T08:42:56;15.00;99.90
45765;DHT22;31474;45.332;10.230;2023-10-31T08:45:22;15.10;99.90
45765;DHT22;31474;45.332;10.230;2023-10-31T08:47:48;15.20;99.90
45765;DHT22;31474;45.332;10.230;2023-10-31T08:50:14;15.20;99.90
45765;DHT22;31474;45.332;10.230;2023-10-31T08:52:40;15.20;99.90
45765;DHT22;31474;45.332;10.230;2023-10-31T08:55:06;15.10;99.90
45765;DHT22;31474;45.332;10.230;2023-10-31T08:57:32;15.10;99.90
45765;DHT22;31474;45.332;10.230;2023-10-31T08:59:59;15.10;99.90
45765;DHT22;31474;45.332;10.230;2023-10-31T09:02:25;15.20;99.90
45765;DHT22;31474;45.332;10.230;2023-10-31T09:04:50;15.20;99.90
45765;DHT22;31474;45.332;10.230;2023-10-31T09:07:16;15.10;99.90
45765;DHT22;31474;45.332;10.230;2023-10-31T09:09:42;15.00;99.90
45765;DHT22;31474;45.332;10.230;2023-10-31T09:12:08;15.00;99.90
45765;DHT22;31474;45.332;10.230;2023-10-31T09:14:34;15.00;99.90
45765;DHT22;31474;45.332;10.230;2023-10-31T09:17:00;15.00;99.90
45765;DHT22;31474;45.332;10.230;2023-10-31T09:19:26;15.00;99.90
45765;DHT22;31474;45.332;10.230;2023-10-31T09:21:52;14.90;99.90
45765;DHT22;31474;45.332;10.230;2023-10-31T09:24:18;14.80;99.90
45765;DHT22;31474;45.332;10.230;2023-10-31T09:26:43;14.70;99.90
45765;DHT22;31474;45.332;10.230;2023-10-31T09:29:10;14.60;99.90
45765;DHT22;31474;45.332;10.230;2023-10-31T09:31:36;14.60;99.90
45765;DHT22;31474;45.332;10.230;2023-10-31T09:34:02;14.50;99.90
45765;DHT22;31474;45.332;10.230;2023-10-31T09:36:32;14.40;99.90
45765;DHT22;31474;45.332;10.230;2023-10-31T09:38:58;14.30;99.90
45765;DHT22;31474;45.332;10.230;2023-10-31T09:41:23;14.30;99.90
45765;DHT22;31474;45.332;10.230;2023-10-31T09:43:49;14.20;99.90
45765;DHT22;31474;45.332;10.230;2023-10-31T09:46:16;14.20;99.90
45765;DHT22;31474;45.332;10.230;2023-10-31T09:48:43;14.20;99.90
45765;DHT22;31474;45.332;10.230;2023-10-31T09:51:09;14.30;99.90
45765;DHT22;31474;45.332;10.230;2023-10-31T09:53:38;14.30;99.90
45765;DHT22;31474;45.332;10.230;2023-10-31T09:56:07;14.40;99.90
45765;DHT22;31474;45.332;10.230;2023-10-31T09:58:33;14.60;99.90
45765;DHT22;31474;45.332;10.230;2023-10-31T10:01:00;14.70;99.90
45765;DHT22;31474;45.332;10.230;2023-10-31T10:03:26;14.80;99.90
45765;DHT22;31474;45.332;10.230;2023-10-31T10:05:52;14.80;99.90
45765;DHT22;31474;45.332;10.230;2023-10-31T10:08:19;14.90;99.90
45765;DHT22;31474;45.332;10.230;2023-10-31T10:10:45;15.00;99.90
45765;DHT22;31474;45.332;10.230;2023-10-31T10:13:11;15.10;99.90
45765;DHT22;31474;45.332;10.230;2023-10-31T10:15:48;15.10;99.90
45765;DHT22;31474;45.332;10.230;2023-10-31T10:18:30;15.30;99.90
45765;DHT22;31474;45.332;10.230;2023-10-31T10:21:04;15.30;99.90
45765;DHT22;31474;45.332;10.230;2023-10-31T10:23:30;15.50;99.90
45765;DHT22;31474;45.332;10.230;2023-10-31T10:25:57;15.70;99.90
45765;DHT22;31474;45.332;10.230;2023-10-31T10:28:23;15.90;99.90
45765;DHT22;31474;45.332;10.230;2023-10-31T10:30:53;16.10;99.90
45765;DHT22;31474;45.332;10.230;2023-10-31T10:33:19;16.20;99.90
45765;DHT22;31474;45.332;10.230;2023-10-31T10:35:45;16.40;99.90
45765;DHT22;31474;45.332;10.230;2023-10-31T10:38:18;16.50;99.90
45765;DHT22;31474;45.332;10.230;2023-10-31T10:40:46;16.60;99.90
45765;DHT22;31474;45.332;10.230;2023-10-31T10:45:42;16.80;99.90
45765;DHT22;31474;45.332;10.230;2023-10-31T10:48:13;16.80;99.90
45765;DHT22;31474;45.332;10.230;2023-10-31T10:50:45;17.00;99.90
45765;DHT22;31474;45.332;10.230;2023-10-31T10:53:42;17.00;99.90
45765;DHT22;31474;45.332;10.230;2023-10-31T10:56:19;17.20;99.90
45765;DHT22;31474;45.332;10.230;2023-10-31T10:59:07;17.40;99.90
45765;DHT22;31474;45.332;10.230;2023-10-31T11:01:34;17.50;99.90
45765;DHT22;31474;45.332;10.230;2023-10-31T11:04:05;17.60;99.90
45765;DHT22;31474;45.332;10.230;2023-10-31T11:06:31;17.70;99.90
45765;DHT22;31474;45.332;10.230;2023-10-31T11:08:58;17.90;99.90
45765;DHT22;31474;45.332;10.230;2023-10-31T11:11:25;18.00;99.90
45765;DHT22;31474;45.332;10.230;2023-10-31T11:13:51;18.20;99.90
45765;DHT22;31474;45.332;10.230;2023-10-31T11:16:53;18.20;99.90
45765;DHT22;31474;45.332;10.230;2023-10-31T11:19:20;18.30;99.90
45765;DHT22;31474;45.332;10.230;2023-10-31T11:21:57;18.50;99.90
45765;DHT22;31474;45.332;10.230;2023-10-31T11:24:23;18.60;99.90
45765;DHT22;31474;45.332;10.230;2023-10-31T11:26:52;18.70;99.90
45765;DHT22;31474;45.332;10.230;2023-10-31T11:29:18;18.80;99.90
45765;DHT22;31474;45.332;10.230;2023-10-31T11:31:44;18.80;99.90
45765;DHT22;31474;45.332;10.230;2023-10-31T11:34:09;18.90;99.90
45765;DHT22;31474;45.332;10.230;2023-10-31T11:36:38;19.00;99.90
45765;DHT22;31474;45.332;10.230;2023-10-31T11:39:15;19.10;99.90
45765;DHT22;31474;45.332;10.230;2023-10-31T11:41:54;19.10;99.90
45765;DHT22;31474;45.332;10.230;2023-10-31T11:44:23;19.20;99.90
45765;DHT22;31474;45.332;10.230;2023-10-31T11:46:51;19.20;99.90
45765;DHT22;31474;45.332;10.230;2023-10-31T11:49:18;19.30;99.90
45765;DHT22;31474;45.332;10.230;2023-10-31T11:52:14;19.30;99.90
45765;DHT22;31474;45.332;10.230;2023-10-31T11:54:40;19.20;99.90
45765;DHT22;31474;45.332;10.230;2023-10-31T11:57:06;19.20;99.90
45765;DHT22;31474;45.332;10.230;2023-10-31T11:59:39;19.10;99.90
45765;DHT22;31474;45.332;10.230;2023-10-31T12:02:14;19.30;99.90
45765;DHT22;31474;45.332;10.230;2023-10-31T12:04:40;19.30;99.90
45765;DHT22;31474;45.332;10.230;2023-10-31T12:07:05;19.50;99.90
45765;DHT22;31474;45.332;10.230;2023-10-31T12:09:31;19.50;99.90
45765;DHT22;31474;45.332;10.230;2023-10-31T12:11:57;19.50;99.90
45765;DHT22;31474;45.332;10.230;2023-10-31T12:14:23;19.50;99.90
45765;DHT22;31474;45.332;10.230;2023-10-31T12:16:48;19.40;99.90
45765;DHT22;31474;45.332;10.230;2023-10-31T12:19:14;19.50;99.90
45765;DHT22;31474;45.332;10.230;2023-10-31T12:21:46;19.50;99.90
45765;DHT22;31474;45.332;10.230;2023-10-31T12:24:15;19.60;99.90
45765;DHT22;31474;45.332;10.230;2023-10-31T12:26:41;19.60;99.90
45765;DHT22;31474;45.332;10.230;2023-10-31T12:31:34;19.70;99.90
45765;DHT22;31474;45.332;10.230;2023-10-31T12:34:07;19.60;99.90
45765;DHT22;31474;45.332;10.230;2023-10-31T12:36:35;19.60;99.90
45765;DHT22;31474;45.332;10.230;2023-10-31T12:39:02;19.60;99.90
45765;DHT22;31474;45.332;10.230;2023-10-31T12:41:29;19.60;99.90
45765;DHT22;31474;45.332;10.230;2023-10-31T12:43:55;19.50;99.90
45765;DHT22;31474;45.332;10.230;2023-10-31T12:46:31;19.50;99.90
45765;DHT22;31474;45.332;10.230;2023-10-31T12:48:57;19.40;99.90
45765;DHT22;31474;45.332;10.230;2023-10-31T12:51:24;19.40;99.90
45765;DHT22;31474;45.332;10.230;2023-10-31T12:53:53;19.40;99.90
45765;DHT22;31474;45.332;10.230;2023-10-31T12:56:58;19.40;99.90
45765;DHT22;31474;45.332;10.230;2023-10-31T12:59:24;19.50;99.90
45765;DHT22;31474;45.332;10.230;2023-10-31T13:01:49;19.50;99.90
45765;DHT22;31474;45.332;10.230;2023-10-31T13:04:24;19.40;99.90
45765;DHT22;31474;45.332;10.230;2023-10-31T13:07:03;19.40;99.90
45765;DHT22;31474;45.332;10.230;2023-10-31T13:09:33;19.40;99.90
45765;DHT22;31474;45.332;10.230;2023-10-31T13:12:01;19.50;99.90
45765;DHT22;31474;45.332;10.230;2023-10-31T13:14:27;19.50;99.90
45765;DHT22;31474;45.332;10.230;2023-10-31T13:16:53;19.50;99.90
45765;DHT22;31474;45.332;10.230;2023-10-31T13:19:19;19.60;99.90
45765;DHT22;31474;45.332;10.230;2023-10-31T13:21:44;19.60;99.90
45765;DHT22;31474;45.332;10.230;2023-10-31T13:24:10;19.50;99.90
45765;DHT22;31474;45.332;10.230;2023-10-31T13:26:36;19.50;99.90
45765;DHT22;31474;45.332;10.230;2023-10-31T13:29:02;19.50;99.90
45765;DHT22;31474;45.332;10.230;2023-10-31T13:31:28;19.50;99.90
45765;DHT22;31474;45.332;10.230;2023-10-31T13:33:53;19.40;99.90
45765;DHT22;31474;45.332;10.230;2023-10-31T13:36:19;19.40;99.90
45765;DHT22;31474;45.332;10.230;2023-10-31T13:38:46;19.40;99.90
45765;DHT22;31474;45.332;10.230;2023-10-31T13:41:12;19.30;99.90
45765;DHT22;31474;45.332;10.230;2023-10-31T13:43:38;19.30;99.90
45765;DHT22;31474;45.332;10.230;2023-10-31T13:46:04;19.30;99.90
45765;DHT22;31474;45.332;10.230;2023-10-31T13:48:30;19.30;99.90
45765;DHT22;31474;45.332;10.230;2023-10-31T13:50:55;19.20;99.90
45765;DHT22;31474;45.332;10.230;2023-10-31T13:53:21;19.20;99.90
45765;DHT22;31474;45.332;10.230;2023-10-31T13:55:47;19.20;99.90
45765;DHT22;31474;45.332;10.230;2023-10-31T13:58:14;19.20;99.90
45765;DHT22;31474;45.332;10.230;2023-10-31T14:00:40;19.20;99.90
45765;DHT22;31474;45.332;10.230;2023-10-31T14:03:06;19.20;99.90
45765;DHT22;31474;45.332;10.230;2023-10-31T14:05:31;19.20;99.90
45765;DHT22;31474;45.332;10.230;2023-10-31T14:07:57;19.10;99.90
45765;DHT22;31474;45.332;10.230;2023-10-31T14:10:23;19.10;99.90
45765;DHT22;31474;45.332;10.230;2023-10-31T14:12:49;19.10;99.90
45765;DHT22;31474;45.332;10.230;2023-10-31T14:15:16;19.10;99.90
45765;DHT22;31474;45.332;10.230;2023-10-31T14:17:41;19.10;99.90
45765;DHT22;31474;45.332;10.230;2023-10-31T14:20:07;19.00;99.90
45765;DHT22;31474;45.332;10.230;2023-10-31T14:22:33;19.00;99.90
45765;DHT22;31474;45.332;10.230;2023-10-31T14:24:59;19.00;99.90
45765;DHT22;31474;45.332;10.230;2023-10-31T14:27:24;18.90;99.90
45765;DHT22;31474;45.332;10.230;2023-10-31T14:29:50;18.80;99.90
45765;DHT22;31474;45.332;10.230;2023-10-31T14:32:17;18.90;99.90
45765;DHT22;31474;45.332;10.230;2023-10-31T14:34:43;18.80;99.90
45765;DHT22;31474;45.332;10.230;2023-10-31T14:37:09;18.80;99.90
45765;DHT22;31474;45.332;10.230;2023-10-31T14:39:34;18.70;99.90
45765;DHT22;31474;45.332;10.230;2023-10-31T14:42:00;18.70;99.90
45765;DHT22;31474;45.332;10.230;2023-10-31T14:44:26;18.60;99.90
45765;DHT22;31474;45.332;10.230;2023-10-31T14:46:51;18.60;99.90
45765;DHT22;31474;45.332;10.230;2023-10-31T14:49:19;18.50;99.90
45765;DHT22;31474;45.332;10.230;2023-10-31T14:51:44;18.50;99.90
45765;DHT22;31474;45.332;10.230;2023-10-31T14:54:10;18.40;99.90
45765;DHT22;31474;45.332;10.230;2023-10-31T14:56:36;18.40;99.90
45765;DHT22;31474;45.332;10.230;2023-10-31T14:59:03;18.40;99.90
45765;DHT22;31474;45.332;10.230;2023-10-31T15:01:29;18.30;99.90
45765;DHT22;31474;45.332;10.230;2023-10-31T15:03:55;18.30;99.90
45765;DHT22;31474;45.332;10.230;2023-10-31T15:06:21;18.30;99.90
45765;DHT22;31474;45.332;10.230;2023-10-31T15:08:47;18.20;99.90
45765;DHT22;31474;45.332;10.230;2023-10-31T15:11:13;18.20;99.90
45765;DHT22;31474;45.332;10.230;2023-10-31T15:13:41;18.10;99.90
45765;DHT22;31474;45.332;10.230;2023-10-31T15:16:07;18.10;99.90
45765;DHT22;31474;45.332;10.230;2023-10-31T15:18:33;18.10;99.90